Radom Military Air Base Radom PL
ICAO: EPRA
IATA:
Category: Medium
Scheduled Services: No

Elevation: 584 ft
TransAlt. 6500 ft.

Airport Communications:
INFO:128.5

EPRA Zoom In..

If you have problems with the map follow the link
https://www.worldairports.se/pages/airport.php?
ICAO=EPRA

Runways:

(A) RW 07 length 6562 ft width 197 ft
---- / hdg 71

(B) RW 25 length 6562 ft width 197 ft
---- / hdg 251

Location; EPRA
Day. 14 / Time. 09.00 Zulu
* QNH: 1013
* Temperature: 04° c. 39.2°f.
* Wind from: 320° Speed 06 kn.
Dewpoint: 04° c.
Visibility: 10 km or more.
Clouds: Broken 800 ft.

EPRA 140900Z 32006KT 9999 BKN008 04/04 Q1013


Wind From 320°
Speed 06 kn.

 
 
jpsmedia worldairports.se 2019   terms of use